Time;durP1;ratioP1;P1;durP2;ratioP2;P2;SDS_P1;SDS_P2;PMS_P1;PMS_P2;Temp;Humidity;BMP_temperature;BMP_pressure;BME280_temperature;BME280_humidity;BME280_pressure;Samples;Min_cycle;Max_cycle;Signal;HPM_P1;HPM_P2
2024/02/15 00:00:50;;;;;;;2.90;2.70;;;19.60;75.00;;;;;;5055260;28;20450;-77
2024/02/15 00:03:19;;;;;;;2.60;2.50;;;19.60;74.90;;;;;;5054571;28;20491;-78
2024/02/15 00:05:47;;;;;;;3.63;2.40;;;19.60;75.00;;;;;;5054712;28;20897;-77
2024/02/15 00:08:18;;;;;;;3.07;2.77;;;19.60;75.00;;;;;;5054843;28;21296;-78
2024/02/15 00:10:46;;;;;;;3.43;2.70;;;19.60;75.00;;;;;;5056147;28;20443;-77
2024/02/15 00:13:14;;;;;;;2.83;2.63;;;19.60;75.10;;;;;;5055898;28;20451;-78
2024/02/15 00:15:43;;;;;;;2.67;2.47;;;19.60;75.00;;;;;;5080753;22;20858;-74
2024/02/15 00:18:11;;;;;;;2.83;2.70;;;19.60;75.10;;;;;;5073899;28;20495;-75
2024/02/15 00:20:39;;;;;;;3.60;2.50;;;19.60;75.00;;;;;;5073585;28;20449;-74
2024/02/15 00:23:07;;;;;;;3.30;3.00;;;19.60;74.80;;;;;;5070925;28;20457;-74
2024/02/15 00:25:37;;;;;;;2.60;2.40;;;19.60;75.10;;;;;;5089577;28;20494;-74
2024/02/15 00:28:05;;;;;;;3.00;2.80;;;19.60;74.90;;;;;;5095178;28;20455;-74
2024/02/15 00:30:33;;;;;;;2.80;2.70;;;19.60;75.10;;;;;;5095446;28;20490;-74
2024/02/15 00:33:02;;;;;;;3.27;2.67;;;19.60;74.90;;;;;;5095073;28;20443;-74
2024/02/15 00:35:31;;;;;;;2.93;2.73;;;19.60;75.70;;;;;;5095074;28;20476;-74
2024/02/15 00:37:59;;;;;;;3.10;2.90;;;19.60;75.00;;;;;;5086992;28;20444;-74
2024/02/15 00:40:27;;;;;;;3.30;3.10;;;19.60;75.00;;;;;;5095373;28;20437;-74
2024/02/15 00:42:56;;;;;;;2.63;2.53;;;19.60;75.10;;;;;;5094646;28;20498;-74
2024/02/15 00:45:25;;;;;;;3.10;2.90;;;19.60;75.00;;;;;;5094780;28;20499;-74
2024/02/15 00:47:53;;;;;;;2.87;2.70;;;19.60;75.00;;;;;;5095132;28;20545;-74
2024/02/15 00:50:22;;;;;;;3.93;3.00;;;19.70;75.10;;;;;;5095020;28;20436;-74
2024/02/15 00:52:50;;;;;;;3.00;2.80;;;19.70;75.10;;;;;;5094832;28;20494;-74
2024/02/15 00:55:19;;;;;;;3.47;2.87;;;19.60;74.80;;;;;;5094672;28;20484;-74
2024/02/15 00:57:47;;;;;;;2.57;2.47;;;19.60;74.80;;;;;;5094885;28;20531;-74
2024/02/15 01:00:17;;;;;;;3.43;3.23;;;19.70;75.20;;;;;;5095143;28;20444;-74
2024/02/15 01:02:45;;;;;;;2.83;2.60;;;19.60;75.10;;;;;;5094393;28;20437;-75
2024/02/15 01:05:15;;;;;;;3.03;2.83;;;19.70;75.10;;;;;;5094380;28;20476;-74
2024/02/15 01:07:43;;;;;;;3.23;2.93;;;19.60;74.90;;;;;;5094634;28;20440;-74
2024/02/15 01:10:11;;;;;;;3.00;2.80;;;19.60;75.20;;;;;;5094815;28;21026;-75
2024/02/15 01:12:39;;;;;;;3.00;2.77;;;19.60;75.10;;;;;;5094489;28;20444;-74
2024/02/15 01:15:08;;;;;;;2.67;2.57;;;19.60;75.30;;;;;;5094356;28;20470;-74
2024/02/15 01:17:37;;;;;;;3.80;2.40;;;19.70;75.20;;;;;;5094175;28;20437;-74
2024/02/15 01:20:07;;;;;;;3.00;2.80;;;19.70;75.20;;;;;;5094324;28;20457;-74
2024/02/15 01:22:35;;;;;;;3.20;3.00;;;19.70;75.20;;;;;;5094305;28;20506;-74
2024/02/15 01:25:04;;;;;;;2.73;2.57;;;19.70;75.20;;;;;;5093948;28;20469;-74
2024/02/15 01:27:32;;;;;;;3.00;2.80;;;19.70;75.20;;;;;;5094346;28;20437;-74
2024/02/15 01:30:00;;;;;;;2.90;2.70;;;19.70;75.30;;;;;;5094411;28;20445;-74
2024/02/15 01:32:28;;;;;;;3.00;2.80;;;19.70;75.30;;;;;;5094453;28;20445;-74
2024/02/15 01:34:58;;;;;;;2.50;2.40;;;19.70;75.20;;;;;;5094179;28;20521;-74
2024/02/15 01:37:26;;;;;;;3.20;2.90;;;19.70;75.10;;;;;;5090161;28;20531;-75
2024/02/15 01:39:54;;;;;;;3.30;3.10;;;19.70;75.20;;;;;;5093756;28;20460;-75
2024/02/15 01:42:22;;;;;;;2.77;2.63;;;19.70;75.40;;;;;;5093878;28;20436;-75
2024/02/15 01:44:52;;;;;;;3.30;3.00;;;19.70;75.30;;;;;;5093754;28;20507;-75
2024/02/15 01:47:22;;;;;;;3.00;2.80;;;19.70;75.20;;;;;;5093464;28;20445;-75
2024/02/15 01:49:51;;;;;;;3.07;2.63;;;19.70;75.40;;;;;;5094074;28;20444;-75
2024/02/15 01:52:20;;;;;;;3.07;2.87;;;19.70;75.30;;;;;;5093308;28;20463;-75
2024/02/15 01:54:48;;;;;;;3.83;3.03;;;19.70;75.20;;;;;;5092835;28;20481;-75
2024/02/15 01:57:16;;;;;;;3.50;3.20;;;19.70;75.20;;;;;;5093887;28;20490;-75
2024/02/15 01:59:44;;;;;;;3.50;3.30;;;19.70;75.20;;;;;;5093885;28;20444;-75
2024/02/15 02:02:13;;;;;;;3.33;3.03;;;19.70;75.20;;;;;;5094096;28;20482;-75
2024/02/15 02:04:41;;;;;;;3.50;3.30;;;19.70;75.10;;;;;;5093396;28;20477;-75
2024/02/15 02:07:09;;;;;;;2.90;2.80;;;19.70;75.20;;;;;;5093700;28;20441;-75
2024/02/15 02:09:38;;;;;;;3.20;3.00;;;19.70;75.30;;;;;;5093768;28;20473;-73
2024/02/15 02:12:07;;;;;;;3.47;3.27;;;19.70;75.20;;;;;;5093534;28;20479;-74
2024/02/15 02:14:36;;;;;;;4.53;3.20;;;19.70;75.50;;;;;;5093672;28;20473;-74
2024/02/15 02:17:14;;;;;;;3.10;2.90;;;19.70;75.60;;;;;;5093556;28;20520;-74
2024/02/15 02:19:43;;;;;;;3.47;2.90;;;19.70;75.30;;;;;;5093963;28;20433;-75
2024/02/15 02:22:12;;;;;;;3.00;2.80;;;19.70;75.50;;;;;;5094071;28;20516;-75
2024/02/15 02:24:55;;;;;;;3.30;2.90;;;19.70;75.60;;;;;;5076718;28;20478;-75
2024/02/15 02:27:23;;;;;;;3.03;2.83;;;19.70;75.40;;;;;;5084197;28;20452;-75
2024/02/15 02:29:51;;;;;;;3.40;3.10;;;19.70;75.30;;;;;;5091225;28;20441;-74
2024/02/15 02:32:19;;;;;;;3.53;3.23;;;19.70;75.30;;;;;;5092968;28;20444;-74
2024/02/15 02:34:48;;;;;;;3.27;3.07;;;19.70;75.40;;;;;;5092834;28;20469;-75
2024/02/15 02:37:16;;;;;;;3.10;2.90;;;19.70;75.50;;;;;;5080414;28;20544;-75
2024/02/15 02:39:44;;;;;;;2.93;2.73;;;19.70;75.30;;;;;;5089641;28;20456;-76
2024/02/15 02:42:14;;;;;;;3.87;3.53;;;19.70;75.30;;;;;;5093026;28;20440;-75
2024/02/15 02:44:42;;;;;;;3.60;3.30;;;19.70;75.40;;;;;;5093152;28;20535;-75
2024/02/15 02:47:10;;;;;;;3.40;3.20;;;19.70;75.30;;;;;;5092727;28;20469;-75
2024/02/15 02:49:38;;;;;;;3.47;3.17;;;19.70;75.40;;;;;;5092840;28;20451;-75
2024/02/15 02:52:08;;;;;;;3.90;3.50;;;19.70;75.40;;;;;;5088374;28;20476;-75
2024/02/15 02:54:36;;;;;;;3.33;3.13;;;19.70;75.30;;;;;;5092064;28;21013;-75
2024/02/15 02:57:06;;;;;;;3.10;2.90;;;19.70;75.30;;;;;;5091943;28;20540;-75
2024/02/15 02:59:39;;;;;;;3.50;3.30;;;19.70;75.30;;;;;;5092277;28;20927;-75
2024/02/15 03:02:08;;;;;;;6.00;3.43;;;19.70;75.30;;;;;;5092889;28;20455;-75
2024/02/15 03:04:38;;;;;;;3.23;3.00;;;19.70;75.50;;;;;;5092329;28;20475;-75
2024/02/15 03:07:06;;;;;;;3.27;3.07;;;19.70;75.50;;;;;;5092612;28;20484;-75
2024/02/15 03:09:37;;;;;;;3.30;3.10;;;19.70;75.40;;;;;;5092771;28;20444;-74
2024/02/15 03:12:05;;;;;;;4.07;3.77;;;19.70;75.30;;;;;;5093108;28;20494;-75
2024/02/15 03:14:35;;;;;;;3.27;3.07;;;19.70;75.30;;;;;;5097428;28;20481;-76
2024/02/15 03:17:04;;;;;;;3.07;2.87;;;19.70;75.40;;;;;;5111954;28;20428;-76
2024/02/15 03:19:33;;;;;;;3.50;3.30;;;19.70;75.40;;;;;;5114068;28;20425;-75
2024/02/15 03:22:01;;;;;;;3.33;3.13;;;19.70;75.50;;;;;;5089047;28;20509;-75
2024/02/15 03:24:29;;;;;;;3.30;3.00;;;19.70;75.50;;;;;;5085725;28;20480;-76
2024/02/15 03:26:57;;;;;;;3.67;3.40;;;19.70;75.50;;;;;;5092363;28;20468;-75
2024/02/15 03:29:25;;;;;;;3.23;2.93;;;19.70;75.50;;;;;;5090580;28;20471;-75
2024/02/15 03:31:54;;;;;;;3.80;3.60;;;19.70;75.50;;;;;;5092925;28;20448;-75
2024/02/15 03:34:25;;;;;;;4.10;3.40;;;19.70;75.40;;;;;;5092647;28;20509;-75
2024/02/15 03:36:54;;;;;;;3.10;2.90;;;19.70;75.40;;;;;;5092101;28;20429;-75
2024/02/15 03:39:23;;;;;;;3.70;3.40;;;19.70;75.50;;;;;;5076761;28;20491;-76
2024/02/15 03:41:53;;;;;;;3.40;3.20;;;19.70;75.30;;;;;;5092177;28;20547;-75
2024/02/15 03:44:21;;;;;;;5.23;3.27;;;19.70;75.40;;;;;;5092472;28;20488;-75
2024/02/15 03:46:51;;;;;;;3.53;3.07;;;19.70;75.50;;;;;;5092293;28;20465;-75
2024/02/15 03:49:19;;;;;;;3.47;3.27;;;19.70;75.50;;;;;;5093216;28;20444;-76
2024/02/15 03:51:49;;;;;;;3.57;3.27;;;19.70;75.40;;;;;;5081499;28;20468;-75
2024/02/15 03:54:17;;;;;;;3.77;3.47;;;19.70;75.50;;;;;;5084305;28;20509;-76
2024/02/15 03:56:51;;;;;;;4.43;4.03;;;19.70;75.30;;;;;;5092049;28;20682;-75
2024/02/15 03:59:26;;;;;;;4.93;3.97;;;19.70;75.20;;;;;;5079104;28;20452;-75
2024/02/15 04:01:54;;;;;;;4.57;3.83;;;19.70;75.40;;;;;;5092462;28;20436;-75
2024/02/15 04:04:22;;;;;;;3.70;3.40;;;19.70;75.40;;;;;;5092277;28;20460;-75
2024/02/15 04:06:52;;;;;;;5.10;4.60;;;19.70;75.50;;;;;;5092145;28;20476;-75
2024/02/15 04:09:20;;;;;;;5.23;4.73;;;19.70;75.40;;;;;;5086101;28;20414;-76
2024/02/15 04:11:52;;;;;;;4.57;4.17;;;19.70;75.50;;;;;;5079941;28;20457;-75
2024/02/15 04:14:21;;;;;;;11.20;5.07;;;19.70;75.50;;;;;;5083903;28;20979;-75
2024/02/15 04:16:49;;;;;;;5.67;4.60;;;19.70;75.50;;;;;;5092562;28;20775;-75
2024/02/15 04:19:19;;;;;;;7.10;4.77;;;19.70;75.40;;;;;;5095039;28;20436;-76
2024/02/15 04:21:48;;;;;;;4.43;4.10;;;19.70;75.50;;;;;;5095732;28;20527;-75
2024/02/15 04:24:17;;;;;;;4.40;4.00;;;19.70;75.40;;;;;;5095475;28;20435;-75
2024/02/15 04:26:47;;;;;;;4.83;4.40;;;19.70;75.40;;;;;;5094176;28;20468;-73
2024/02/15 04:29:15;;;;;;;4.53;4.13;;;19.70;75.50;;;;;;5094992;28;20436;-74
2024/02/15 04:31:43;;;;;;;5.00;4.53;;;19.70;75.50;;;;;;5095123;28;20432;-74
2024/02/15 04:34:11;;;;;;;4.97;4.47;;;19.70;75.50;;;;;;5095474;28;20510;-74
2024/02/15 04:36:39;;;;;;;6.07;5.03;;;19.70;75.50;;;;;;5095257;28;20440;-73
2024/02/15 04:39:07;;;;;;;4.53;4.07;;;19.60;75.50;;;;;;5095480;28;20444;-73
2024/02/15 04:41:38;;;;;;;5.27;4.77;;;19.70;75.90;;;;;;5085527;28;20449;-76
2024/02/15 04:44:11;;;;;;;5.30;4.80;;;19.70;75.60;;;;;;5095021;28;20433;-73
2024/02/15 04:46:40;;;;;;;5.20;4.70;;;19.70;75.60;;;;;;5095283;28;20472;-73
2024/02/15 04:49:10;;;;;;;6.10;5.30;;;19.70;75.60;;;;;;5095104;28;20538;-74
2024/02/15 04:51:39;;;;;;;5.13;4.63;;;19.70;75.60;;;;;;5094768;28;20437;-73
2024/02/15 04:54:07;;;;;;;7.10;5.73;;;19.70;75.50;;;;;;5094671;28;20465;-74
2024/02/15 04:56:35;;;;;;;5.00;4.60;;;19.70;75.40;;;;;;5093010;28;20516;-74
2024/02/15 04:59:06;;;;;;;5.60;5.10;;;19.70;75.50;;;;;;5095025;28;20441;-74
2024/02/15 05:01:34;;;;;;;6.37;4.77;;;19.70;75.50;;;;;;5094614;28;20441;-74
2024/02/15 05:04:05;;;;;;;6.50;4.87;;;19.70;75.40;;;;;;5095342;28;20460;-74
2024/02/15 05:06:34;;;;;;;4.90;4.50;;;19.70;75.40;;;;;;5090126;28;20822;-75
2024/02/15 05:09:07;;;;;;;5.20;4.70;;;19.70;75.80;;;;;;5094473;28;20472;-75
2024/02/15 05:11:36;;;;;;;6.10;5.17;;;19.70;75.70;;;;;;5085868;28;20460;-74
2024/02/15 05:14:06;;;;;;;5.80;4.90;;;19.70;75.50;;;;;;5090440;28;20930;-73
2024/02/15 05:16:34;;;;;;;5.30;4.80;;;19.70;75.50;;;;;;5094243;28;20464;-74
2024/02/15 05:19:02;;;;;;;5.43;4.73;;;19.70;75.40;;;;;;5094444;28;20440;-74
2024/02/15 05:21:31;;;;;;;5.80;5.20;;;19.70;75.60;;;;;;5094081;28;20429;-74
2024/02/15 05:23:59;;;;;;;5.17;4.67;;;19.70;75.50;;;;;;5093782;28;20444;-74
2024/02/15 05:26:27;;;;;;;5.90;4.97;;;19.70;75.80;;;;;;5093101;28;20485;-74
2024/02/15 05:28:56;;;;;;;5.30;4.50;;;19.70;75.80;;;;;;5093631;28;20433;-74
2024/02/15 05:31:25;;;;;;;6.50;5.37;;;19.70;75.60;;;;;;5093744;28;20437;-74
2024/02/15 05:33:54;;;;;;;6.23;5.60;;;19.70;75.50;;;;;;5093068;28;20506;-74
2024/02/15 05:36:23;;;;;;;5.97;4.73;;;19.70;75.30;;;;;;5093659;28;20441;-74
2024/02/15 05:38:52;;;;;;;5.07;4.53;;;19.70;75.60;;;;;;5094040;28;20532;-74
2024/02/15 05:41:21;;;;;;;5.73;5.13;;;19.70;75.50;;;;;;5085286;28;20452;-74
2024/02/15 05:43:49;;;;;;;6.47;5.27;;;19.70;75.50;;;;;;5093300;28;20540;-73
2024/02/15 05:46:17;;;;;;;6.30;4.97;;;19.70;75.50;;;;;;5088587;28;20548;-73
2024/02/15 05:48:46;;;;;;;5.37;4.87;;;19.70;75.70;;;;;;5085226;28;20564;-73
2024/02/15 05:51:15;;;;;;;4.97;4.47;;;19.70;75.50;;;;;;5087107;28;20434;-73
2024/02/15 05:53:43;;;;;;;5.70;5.10;;;19.70;75.50;;;;;;5088129;28;20435;-74
2024/02/15 05:56:12;;;;;;;6.47;5.40;;;19.70;75.60;;;;;;5093618;28;20464;-74
2024/02/15 05:58:40;;;;;;;6.10;5.50;;;19.70;75.50;;;;;;5092195;28;20521;-74
2024/02/15 06:01:11;;;;;;;6.20;4.90;;;19.70;75.60;;;;;;5087009;28;20847;-74
2024/02/15 06:03:41;;;;;;;6.23;5.07;;;19.70;75.70;;;;;;5086840;28;20512;-73
2024/02/15 06:06:11;;;;;;;6.10;5.30;;;19.70;75.80;;;;;;5086581;28;20467;-74
2024/02/15 06:08:39;;;;;;;7.07;5.30;;;19.70;75.70;;;;;;5087907;28;20465;-73
2024/02/15 06:11:09;;;;;;;7.47;5.13;;;19.70;75.70;;;;;;5085190;28;20433;-73
2024/02/15 06:13:37;;;;;;;5.80;5.27;;;19.70;75.60;;;;;;5073354;28;20445;-74
2024/02/15 06:16:09;;;;;;;7.90;5.60;;;19.70;75.50;;;;;;5051996;22;20566;-78
2024/02/15 06:18:41;;;;;;;5.07;4.63;;;19.70;75.80;;;;;;5014266;28;20433;-77
2024/02/15 06:21:10;;;;;;;5.83;5.23;;;19.70;75.80;;;;;;5013459;28;20532;-76
2024/02/15 06:23:38;;;;;;;6.63;5.37;;;19.70;75.90;;;;;;5013070;28;20448;-76
2024/02/15 06:26:07;;;;;;;9.20;6.07;;;19.70;75.90;;;;;;5012326;28;20495;-76
2024/02/15 06:39:43;;;;;;;8.13;6.43;;;19.70;75.90;;;;;;5010564;28;20476;-76
2024/02/15 06:42:14;;;;;;;9.37;6.30;;;19.70;76.10;;;;;;5011856;28;20452;-75
2024/02/15 06:44:43;;;;;;;7.83;6.00;;;19.60;75.80;;;;;;5009012;28;20500;-77
2024/02/15 06:47:12;;;;;;;7.80;5.90;;;19.70;75.90;;;;;;5010893;28;20440;-76
2024/02/15 06:49:40;;;;;;;8.93;6.03;;;19.70;76.10;;;;;;5010650;28;20452;-76
2024/02/15 06:52:11;;;;;;;7.73;6.40;;;19.70;76.00;;;;;;5010511;28;20487;-76
2024/02/15 06:54:39;;;;;;;9.67;6.33;;;19.70;76.00;;;;;;5011180;28;20452;-76
2024/02/15 06:57:07;;;;;;;7.67;5.77;;;19.70;76.00;;;;;;5011894;28;20487;-77
2024/02/15 06:59:37;;;;;;;9.57;6.80;;;19.70;76.00;;;;;;5010252;28;20444;-76
2024/02/15 07:02:05;;;;;;;7.97;6.30;;;19.70;75.80;;;;;;5014309;28;20461;-76
2024/02/15 07:04:33;;;;;;;8.07;6.70;;;19.70;76.00;;;;;;5002248;28;20468;-77
2024/02/15 07:07:03;;;;;;;8.40;6.30;;;19.70;76.00;;;;;;5010611;28;20433;-76
2024/02/15 07:09:32;;;;;;;8.20;6.30;;;19.70;75.80;;;;;;4990402;28;20999;-77
2024/02/15 07:12:00;;;;;;;9.37;6.70;;;19.70;76.00;;;;;;5004400;28;20437;-76
2024/02/15 07:14:28;;;;;;;8.60;7.00;;;19.70;76.10;;;;;;5008962;28;20456;-77
2024/02/15 07:16:58;;;;;;;8.97;6.70;;;19.70;75.90;;;;;;5010487;28;20432;-77
2024/02/15 07:19:26;;;;;;;7.80;7.07;;;19.70;75.90;;;;;;5011394;28;20456;-76
2024/02/15 07:21:56;;;;;;;8.63;6.33;;;19.70;75.90;;;;;;5010777;28;20546;-76
2024/02/15 07:24:26;;;;;;;7.30;6.60;;;19.70;76.00;;;;;;5010649;28;20444;-76
2024/02/15 07:26:56;;;;;;;8.57;7.13;;;19.70;76.10;;;;;;5011149;28;20746;-77
2024/02/15 07:29:25;;;;;;;10.07;7.00;;;19.70;76.10;;;;;;5011641;28;20475;-76
2024/02/15 07:31:53;;;;;;;7.63;6.83;;;19.70;76.20;;;;;;5010478;28;20440;-77
2024/02/15 07:34:26;;;;;;;11.20;7.07;;;19.70;76.20;;;;;;5012068;28;20459;-77
2024/02/15 07:36:54;;;;;;;8.20;6.97;;;19.80;76.20;;;;;;5011855;28;20510;-78
2024/02/15 07:39:24;;;;;;;9.33;7.50;;;19.80;76.20;;;;;;5012507;28;20444;-76
2024/02/15 07:41:53;;;;;;;12.30;7.27;;;19.80;76.20;;;;;;5012349;28;20454;-77
2024/02/15 07:44:22;;;;;;;9.60;6.90;;;19.80;76.20;;;;;;5011057;28;20482;-78
2024/02/15 07:46:51;;;;;;;9.83;6.87;;;19.80;76.00;;;;;;5010126;28;20448;-77
2024/02/15 07:49:19;;;;;;;7.87;6.67;;;19.80;76.10;;;;;;5010462;28;20499;-78
2024/02/15 07:51:52;;;;;;;10.30;6.90;;;19.80;76.10;;;;;;5012603;28;20993;-78
2024/02/15 07:54:21;;;;;;;12.07;6.77;;;19.80;76.00;;;;;;5008453;28;20460;-78
2024/02/15 07:56:49;;;;;;;7.63;6.63;;;19.80;75.90;;;;;;5015711;28;20476;-78
2024/02/15 07:59:18;;;;;;;8.60;7.00;;;19.80;76.00;;;;;;5015796;28;20447;-77
2024/02/15 08:01:49;;;;;;;7.20;6.50;;;19.80;76.00;;;;;;5020946;28;20552;-78
2024/02/15 08:04:19;;;;;;;9.50;7.20;;;19.80;75.70;;;;;;5015071;28;20444;-77
2024/02/15 08:06:48;;;;;;;8.33;6.80;;;19.90;76.00;;;;;;5015147;28;20471;-77
2024/02/15 08:09:17;;;;;;;7.20;6.20;;;19.80;75.80;;;;;;5014728;28;20468;-77
2024/02/15 08:11:46;;;;;;;8.43;6.27;;;19.90;75.90;;;;;;5015357;28;20453;-78
2024/02/15 08:14:14;;;;;;;7.00;6.20;;;19.90;76.10;;;;;;5014602;28;20426;-78
2024/02/15 08:16:42;;;;;;;7.90;6.33;;;19.90;76.00;;;;;;5014262;28;20472;-78
2024/02/15 08:19:12;;;;;;;7.90;6.40;;;19.90;76.20;;;;;;5013252;28;20444;-78
2024/02/15 08:21:42;;;;;;;9.90;5.90;;;19.90;75.90;;;;;;5014518;28;20447;-78
2024/02/15 08:24:10;;;;;;;9.77;6.70;;;19.90;75.90;;;;;;5013251;28;20443;-78
2024/02/15 08:26:38;;;;;;;11.30;6.23;;;19.90;76.10;;;;;;5009872;28;20519;-78
2024/02/15 08:29:07;;;;;;;8.67;6.50;;;19.90;76.10;;;;;;5012461;28;20499;-78
2024/02/15 08:31:35;;;;;;;10.50;6.53;;;19.90;76.10;;;;;;5013136;28;20444;-78
2024/02/15 08:34:05;;;;;;;7.20;6.23;;;19.90;76.10;;;;;;5014130;28;20437;-78
2024/02/15 08:36:34;;;;;;;8.00;7.20;;;19.90;76.30;;;;;;5014098;28;20559;-76
2024/02/15 08:39:04;;;;;;;6.63;5.97;;;19.90;76.40;;;;;;5014548;28;20446;-78
2024/02/15 08:41:32;;;;;;;9.40;7.33;;;19.90;76.40;;;;;;5014036;28;20444;-79
2024/02/15 08:44:01;;;;;;;13.27;6.90;;;20.00;76.40;;;;;;5014222;28;20925;-79
2024/02/15 08:46:29;;;;;;;8.30;6.17;;;20.00;76.00;;;;;;5014039;28;20515;-78
2024/02/15 08:48:57;;;;;;;6.33;5.70;;;20.00;76.20;;;;;;5014866;28;20546;-77
2024/02/15 08:51:25;;;;;;;9.63;6.70;;;20.00;76.10;;;;;;5014707;28;20469;-78
2024/02/15 08:53:55;;;;;;;7.73;6.10;;;20.00;76.20;;;;;;5014386;28;20475;-78
2024/02/15 08:56:25;;;;;;;8.70;6.57;;;20.00;76.30;;;;;;5014041;28;20468;-78
2024/02/15 08:58:53;;;;;;;6.33;5.73;;;20.00;76.30;;;;;;5014064;28;20503;-78
2024/02/15 09:01:22;;;;;;;7.83;5.90;;;20.00;76.30;;;;;;5014154;28;20476;-78
2024/02/15 09:03:50;;;;;;;7.60;5.63;;;20.00;76.30;;;;;;5013825;28;20502;-77
2024/02/15 09:06:18;;;;;;;6.03;5.43;;;20.10;76.40;;;;;;5014089;28;20894;-78
2024/02/15 09:08:47;;;;;;;6.50;5.77;;;20.10;76.40;;;;;;5014135;28;20472;-77
2024/02/15 09:11:17;;;;;;;9.20;6.23;;;20.10;76.20;;;;;;5013983;28;20441;-79
2024/02/15 09:13:46;;;;;;;9.57;6.20;;;20.10;76.30;;;;;;5014016;28;20448;-78
2024/02/15 09:16:14;;;;;;;10.53;6.07;;;20.10;76.50;;;;;;5013418;28;20464;-78
2024/02/15 09:18:45;;;;;;;7.23;5.90;;;20.10;76.50;;;;;;5013767;28;20448;-79
2024/02/15 09:21:14;;;;;;;6.43;5.43;;;20.10;76.30;;;;;;5013918;28;20440;-78
2024/02/15 09:23:42;;;;;;;7.00;5.70;;;20.10;76.30;;;;;;5013604;28;20433;-79
2024/02/15 09:26:10;;;;;;;9.40;6.00;;;20.20;76.50;;;;;;5013344;28;20464;-79
2024/02/15 09:28:40;;;;;;;7.10;6.40;;;20.20;76.50;;;;;;5013219;28;20444;-79
2024/02/15 09:31:11;;;;;;;6.07;5.50;;;20.20;76.30;;;;;;5013467;28;20429;-79
2024/02/15 09:33:39;;;;;;;8.10;5.57;;;20.20;76.40;;;;;;5013110;28;20432;-78
2024/02/15 09:36:08;;;;;;;7.83;5.30;;;20.20;76.50;;;;;;5013476;28;20510;-79
2024/02/15 09:38:37;;;;;;;6.57;5.77;;;20.20;76.50;;;;;;5013161;28;20452;-78
2024/02/15 09:41:07;;;;;;;10.13;6.33;;;20.20;76.40;;;;;;5013771;28;20524;-77
2024/02/15 09:43:36;;;;;;;9.40;5.90;;;20.20;76.50;;;;;;5013641;28;20444;-77
2024/02/15 09:46:06;;;;;;;7.00;5.80;;;20.20;76.40;;;;;;5013545;28;20460;-75
2024/02/15 09:48:34;;;;;;;7.83;5.70;;;20.20;76.60;;;;;;5013665;28;20448;-77
2024/02/15 09:51:03;;;;;;;9.40;6.17;;;20.20;76.80;;;;;;5013459;28;20495;-77
2024/02/15 09:53:31;;;;;;;9.33;5.60;;;20.20;76.60;;;;;;5013489;28;20440;-77
2024/02/15 09:56:04;;;;;;;7.87;5.37;;;20.20;76.70;;;;;;5013398;28;20532;-76
2024/02/15 09:58:33;;;;;;;6.67;5.97;;;20.20;76.80;;;;;;5013197;28;20465;-77
2024/02/15 10:01:03;;;;;;;6.70;5.53;;;20.20;76.90;;;;;;5013407;28;20436;-77
2024/02/15 10:03:33;;;;;;;5.40;5.00;;;20.20;77.00;;;;;;5013108;28;20436;-77
2024/02/15 10:06:01;;;;;;;7.57;5.90;;;20.20;76.80;;;;;;5012952;28;20468;-78
2024/02/15 10:08:30;;;;;;;6.77;6.07;;;20.30;76.70;;;;;;5014063;28;20506;-78
2024/02/15 10:11:08;;;;;;;6.50;5.90;;;20.30;76.60;;;;;;5012886;28;20499;-77
2024/02/15 10:13:37;;;;;;;7.70;6.40;;;20.30;76.70;;;;;;5013318;28;20417;-77
2024/02/15 10:16:15;;;;;;;9.37;5.80;;;20.30;76.80;;;;;;5012953;28;20526;-77
2024/02/15 10:18:44;;;;;;;8.30;6.00;;;20.30;76.80;;;;;;5013061;28;20487;-78
2024/02/15 10:21:24;;;;;;;6.93;5.90;;;20.30;76.80;;;;;;5012753;28;20801;-76
2024/02/15 10:24:05;;;;;;;6.93;6.13;;;20.30;76.70;;;;;;5012795;28;20440;-77
2024/02/15 10:26:34;;;;;;;9.00;6.53;;;20.40;76.60;;;;;;5012335;28;20471;-77
2024/02/15 10:29:08;;;;;;;9.37;6.10;;;20.40;76.60;;;;;;5012833;28;20447;-78
2024/02/15 10:31:36;;;;;;;8.73;6.30;;;20.40;76.60;;;;;;5012909;28;20449;-77
2024/02/15 10:34:07;;;;;;;10.13;6.83;;;20.40;76.40;;;;;;5012173;28;20491;-78
2024/02/15 10:36:35;;;;;;;7.00;6.30;;;20.40;76.40;;;;;;5011953;28;20456;-78
2024/02/15 10:39:16;;;;;;;7.20;6.50;;;20.40;76.70;;;;;;5011792;28;20475;-78
2024/02/15 10:41:45;;;;;;;7.23;6.20;;;20.40;76.60;;;;;;5011866;28;20440;-77
2024/02/15 10:44:18;;;;;;;9.53;6.60;;;20.40;76.50;;;;;;5011757;28;20494;-77
2024/02/15 10:46:50;;;;;;;6.27;5.67;;;20.40;76.80;;;;;;5011813;28;20522;-78
2024/02/15 10:49:21;;;;;;;8.83;6.17;;;20.40;76.70;;;;;;5012064;28;20544;-78
2024/02/15 10:51:52;;;;;;;7.47;6.30;;;20.40;76.90;;;;;;5011889;28;20464;-78
2024/02/15 10:54:42;;;;;;;9.83;6.90;;;20.40;76.70;;;;;;5011500;28;20519;-78
2024/02/15 10:57:11;;;;;;;10.00;6.50;;;20.40;76.50;;;;;;5011618;28;20455;-77
2024/02/15 10:59:41;;;;;;;6.50;5.90;;;20.40;76.80;;;;;;5012041;28;20448;-77
2024/02/15 11:02:24;;;;;;;12.40;6.80;;;20.40;76.80;;;;;;5012421;28;20532;-77
2024/02/15 11:04:56;;;;;;;8.83;6.53;;;20.40;76.70;;;;;;5012542;28;20463;-77
2024/02/15 11:07:26;;;;;;;8.23;6.33;;;20.40;77.00;;;;;;5011677;28;20471;-77
2024/02/15 11:09:58;;;;;;;9.57;8.13;;;20.40;77.00;;;;;;5011472;28;20468;-77
2024/02/15 11:12:27;;;;;;;12.50;6.77;;;20.40;77.00;;;;;;5011712;28;20455;-77
2024/02/15 11:14:55;;;;;;;7.53;6.73;;;20.40;76.80;;;;;;5011594;28;20484;-77
2024/02/15 11:17:48;;;;;;;7.10;6.40;;;20.40;77.50;;;;;;5011533;28;20459;-77
2024/02/15 11:20:49;;;;;;;8.07;6.80;;;20.40;77.00;;;;;;5011467;28;20452;-76
2024/02/15 11:23:27;;;;;;;10.30;6.57;;;20.40;77.00;;;;;;5011481;28;20436;-77
2024/02/15 11:26:04;;;;;;;8.63;6.80;;;20.40;77.10;;;;;;5012904;28;20544;-76
2024/02/15 11:28:40;;;;;;;6.53;5.83;;;20.40;77.10;;;;;;5015114;28;20442;-76
2024/02/15 11:31:09;;;;;;;11.30;6.50;;;20.50;76.90;;;;;;5015717;28;20482;-76
2024/02/15 11:33:38;;;;;;;7.67;5.80;;;20.50;76.80;;;;;;5015371;28;20444;-76
2024/02/15 11:36:09;;;;;;;8.60;5.70;;;20.60;77.00;;;;;;5015176;28;20483;-77
2024/02/15 11:38:41;;;;;;;9.73;6.47;;;20.60;76.50;;;;;;5015178;28;20458;-76
2024/02/15 11:41:10;;;;;;;7.20;6.33;;;20.60;76.80;;;;;;5014909;28;20437;-74
2024/02/15 11:43:58;;;;;;;7.57;6.13;;;20.70;76.60;;;;;;5015072;28;20432;-77
2024/02/15 11:46:30;;;;;;;6.53;5.93;;;20.70;76.70;;;;;;5015084;28;20461;-76
2024/02/15 11:48:59;;;;;;;6.87;6.13;;;20.70;76.60;;;;;;5014815;28;20486;-77
2024/02/15 11:51:36;;;;;;;5.90;5.40;;;20.70;76.50;;;;;;5014935;28;20472;-77
2024/02/15 11:54:06;;;;;;;8.40;5.60;;;20.70;76.40;;;;;;5015674;28;20482;-76
2024/02/15 11:57:04;;;;;;;6.80;5.50;;;20.70;76.40;;;;;;5014899;28;20467;-77
2024/02/15 11:59:52;;;;;;;5.73;5.20;;;20.80;76.40;;;;;;5014782;28;20448;-77
2024/02/15 12:19:18;;;;;;;5.87;5.37;;;20.80;76.50;;;;;;5015577;28;20447;-79
2024/02/15 12:21:47;;;;;;;7.63;5.30;;;20.80;76.40;;;;;;5015042;28;20435;-77
2024/02/15 12:24:20;;;;;;;5.50;5.00;;;20.70;76.50;;;;;;5015600;28;20448;-76
2024/02/15 12:26:49;;;;;;;7.23;5.13;;;20.80;76.40;;;;;;5014554;28;20440;-76
2024/02/15 12:29:18;;;;;;;6.40;5.40;;;20.80;76.40;;;;;;5014600;28;20455;-76
2024/02/15 12:31:46;;;;;;;5.50;5.00;;;20.70;76.40;;;;;;5014289;28;20566;-78
2024/02/15 12:34:16;;;;;;;7.23;4.80;;;20.70;76.40;;;;;;5014681;28;20628;-78
2024/02/15 12:36:45;;;;;;;7.93;5.37;;;20.70;76.50;;;;;;5013330;28;20499;-78
2024/02/15 12:39:16;;;;;;;5.60;5.10;;;20.70;76.70;;;;;;5014318;28;20450;-78
2024/02/15 12:41:51;;;;;;;5.33;4.83;;;20.70;76.80;;;;;;5014352;28;20540;-77
2024/02/15 12:44:20;;;;;;;6.87;5.53;;;20.70;76.50;;;;;;5014351;28;20800;-77
2024/02/15 12:46:50;;;;;;;7.07;5.33;;;20.70;76.70;;;;;;5014279;28;20431;-77
2024/02/15 12:49:28;;;;;;;5.73;5.17;;;20.70;77.00;;;;;;5014623;28;20616;-77
2024/02/15 12:52:36;;;;;;;5.30;4.80;;;20.70;77.00;;;;;;5014508;28;20530;-79
2024/02/15 12:55:11;;;;;;;5.60;5.10;;;20.70;77.00;;;;;;5013975;28;20491;-78
2024/02/15 12:57:41;;;;;;;5.20;4.70;;;20.70;76.80;;;;;;5014079;28;20451;-78
2024/02/15 13:00:14;;;;;;;5.83;5.10;;;20.70;77.00;;;;;;5013855;28;20440;-77
2024/02/15 13:02:42;;;;;;;5.33;4.83;;;20.70;77.10;;;;;;5013730;28;20436;-76
2024/02/15 13:05:13;;;;;;;6.57;4.70;;;20.70;77.20;;;;;;5013897;28;20464;-77
2024/02/15 13:07:42;;;;;;;5.50;5.00;;;20.70;77.20;;;;;;5013761;28;20441;-76
2024/02/15 13:10:10;;;;;;;6.53;4.83;;;20.70;77.20;;;;;;5013928;28;20451;-77
2024/02/15 13:12:40;;;;;;;5.50;5.00;;;20.70;76.90;;;;;;5013637;28;20482;-76
2024/02/15 13:15:11;;;;;;;5.73;4.70;;;20.70;76.80;;;;;;5013689;28;20514;-77
2024/02/15 13:17:39;;;;;;;6.50;4.90;;;20.70;76.80;;;;;;5013666;28;20443;-77
2024/02/15 13:20:12;;;;;;;6.70;5.13;;;20.70;77.10;;;;;;5013739;28;20444;-76
2024/02/15 13:22:41;;;;;;;5.60;5.10;;;20.80;77.20;;;;;;5012527;28;20442;-77
2024/02/15 13:25:09;;;;;;;5.17;4.40;;;20.70;77.00;;;;;;5013318;28;20515;-77
2024/02/15 13:27:38;;;;;;;5.33;4.83;;;20.80;77.10;;;;;;5013274;28;20479;-76